createdAt,value
2022-12-18T00:00:07.293Z,63.10
2022-12-18T00:03:02.360Z,52.10
2022-12-18T00:05:30.793Z,55.30
2022-12-18T00:07:59.174Z,51.60
2022-12-18T00:10:28.706Z,55.50
2022-12-18T00:12:57.477Z,46.50
2022-12-18T00:15:26.102Z,53.50
2022-12-18T00:17:54.367Z,53.20
2022-12-18T00:20:26.778Z,53.30
2022-12-18T00:22:56.193Z,54.70
2022-12-18T00:25:24.973Z,53.60
2022-12-18T00:27:53.205Z,50.20
2022-12-18T00:30:21.717Z,49.60
2022-12-18T00:32:50.096Z,50.80
2022-12-18T00:35:18.384Z,57.50
2022-12-18T00:37:48.298Z,48.40
2022-12-18T00:40:16.832Z,44.70
2022-12-18T00:42:57.097Z,45.50
2022-12-18T00:45:30.568Z,50.80
2022-12-18T00:47:58.942Z,53.20
2022-12-18T00:50:27.744Z,54.00
2022-12-18T00:52:56.024Z,52.20
2022-12-18T00:55:24.271Z,59.00
2022-12-18T00:57:53.682Z,45.50
2022-12-18T01:00:22.291Z,49.50
2022-12-18T01:02:50.927Z,46.70
2022-12-18T01:05:19.416Z,40.60
2022-12-18T01:07:47.678Z,43.80
2022-12-18T01:10:16.332Z,46.60
2022-12-18T01:12:44.595Z,51.10
2022-12-18T01:15:14.374Z,44.00
2022-12-18T01:17:43.315Z,45.80
2022-12-18T01:20:13.845Z,49.10
2022-12-18T01:22:42.128Z,45.40
2022-12-18T01:25:10.511Z,51.30
2022-12-18T01:27:38.812Z,49.00
2022-12-18T01:30:08.023Z,50.80
2022-12-18T01:32:36.320Z,51.90
2022-12-18T01:35:05.028Z,46.90
2022-12-18T01:37:33.585Z,51.60
2022-12-18T01:40:02.075Z,50.80
2022-12-18T01:42:30.304Z,54.10
2022-12-18T01:44:58.755Z,53.30
2022-12-18T01:47:36.086Z,54.50
2022-12-18T01:50:41.179Z,55.60
2022-12-18T01:53:18.088Z,49.50
2022-12-18T01:55:49.562Z,54.90
2022-12-18T01:58:19.745Z,51.20
2022-12-18T02:00:48.274Z,58.00
2022-12-18T02:03:17.222Z,57.10
2022-12-18T02:05:58.577Z,52.70
2022-12-18T02:08:41.721Z,58.30
2022-12-18T02:11:40.892Z,54.60
2022-12-18T02:14:23.092Z,52.40
2022-12-18T02:17:05.057Z,55.40
2022-12-18T02:19:52.129Z,55.90
2022-12-18T02:22:38.738Z,59.30
2022-12-18T02:25:09.812Z,46.10
2022-12-18T02:27:40.585Z,57.40
2022-12-18T02:30:09.784Z,53.90
2022-12-18T02:32:43.993Z,54.80
2022-12-18T02:35:17.748Z,51.50
2022-12-18T02:37:48.183Z,51.60
2022-12-18T02:40:19.412Z,54.70
2022-12-18T02:42:47.647Z,54.70
2022-12-18T02:45:17.352Z,51.40
2022-12-18T02:47:50.685Z,56.20
2022-12-18T02:50:35.313Z,50.80
2022-12-18T02:53:16.052Z,47.40
2022-12-18T02:56:03.292Z,52.10
2022-12-18T02:59:08.141Z,43.80
2022-12-18T03:01:53.513Z,50.40
2022-12-18T03:04:31.085Z,46.00
2022-12-18T03:07:04.772Z,56.90
2022-12-18T03:09:37.872Z,46.50
2022-12-18T03:12:24.787Z,46.10
2022-12-18T03:15:00.195Z,36.00
2022-12-18T03:17:31.652Z,44.20
2022-12-18T03:20:06.452Z,44.60
2022-12-18T03:22:38.060Z,48.20
2022-12-18T03:25:10.880Z,53.70
2022-12-18T03:27:46.292Z,53.40
2022-12-18T03:30:17.089Z,47.00
2022-12-18T03:32:50.164Z,50.40
2022-12-18T03:35:24.164Z,48.30
2022-12-18T03:37:52.789Z,42.30
2022-12-18T03:40:37.124Z,48.40
2022-12-18T03:43:31.173Z,53.60
2022-12-18T03:46:06.815Z,45.10
2022-12-18T03:48:49.616Z,51.90
2022-12-18T03:51:35.196Z,53.80
2022-12-18T03:54:07.753Z,50.90
2022-12-18T03:56:52.589Z,52.60
2022-12-18T03:59:24.073Z,50.90
2022-12-18T04:01:56.086Z,55.60
2022-12-18T04:04:28.608Z,48.20
2022-12-18T04:06:59.387Z,45.30
2022-12-18T04:09:29.450Z,48.80
2022-12-18T04:11:57.574Z,58.00
2022-12-18T04:14:26.273Z,56.80
2022-12-18T04:16:55.945Z,57.70
2022-12-18T04:19:28.549Z,59.90
2022-12-18T04:21:56.721Z,57.70
2022-12-18T04:24:25.141Z,59.00
2022-12-18T04:27:03.456Z,63.40
2022-12-18T04:29:35.635Z,62.90
2022-12-18T04:32:03.812Z,55.50
2022-12-18T04:34:33.039Z,55.40
2022-12-18T04:37:02.015Z,54.40
2022-12-18T04:39:31.441Z,58.40
2022-12-18T04:42:01.909Z,59.40
2022-12-18T04:44:30.189Z,54.90
2022-12-18T04:46:58.599Z,53.80
2022-12-18T04:49:27.025Z,57.40
2022-12-18T04:51:55.800Z,56.90
2022-12-18T04:54:24.129Z,58.00
2022-12-18T04:56:52.369Z,53.90
2022-12-18T04:59:21.101Z,53.70
2022-12-18T05:01:49.296Z,49.60
2022-12-18T05:04:17.775Z,55.70
2022-12-18T05:06:46.304Z,50.50
2022-12-18T05:09:14.596Z,53.90
2022-12-18T05:11:42.777Z,46.80
2022-12-18T05:14:11.312Z,59.20
2022-12-18T05:16:39.425Z,61.40
2022-12-18T05:19:07.809Z,59.80
2022-12-18T05:21:35.941Z,52.70
2022-12-18T05:24:04.388Z,57.90
2022-12-18T05:26:32.661Z,62.40
2022-12-18T05:29:00.958Z,53.60
2022-12-18T05:31:29.185Z,57.90
2022-12-18T05:33:57.704Z,58.60
2022-12-18T05:36:25.976Z,60.80
2022-12-18T05:38:54.306Z,62.00
2022-12-18T05:41:22.477Z,62.90
2022-12-18T05:43:50.848Z,57.80
2022-12-18T05:46:19.260Z,58.40
2022-12-18T05:48:48.228Z,60.20
2022-12-18T05:51:19.141Z,59.30
2022-12-18T05:53:47.797Z,55.30
2022-12-18T05:56:18.688Z,60.90
2022-12-18T05:58:47.745Z,55.70
2022-12-18T06:01:21.579Z,61.60
2022-12-18T06:03:50.568Z,57.30
2022-12-18T06:06:24.778Z,60.70
2022-12-18T06:08:53.842Z,60.30
2022-12-18T06:11:25.357Z,55.10
2022-12-18T06:13:58.720Z,62.50
2022-12-18T06:16:29.416Z,57.60
2022-12-18T06:18:59.293Z,62.20
2022-12-18T06:21:29.121Z,59.70
2022-12-18T06:23:57.741Z,56.50
2022-12-18T06:26:28.363Z,55.40
2022-12-18T06:28:57.364Z,64.10
2022-12-18T06:31:26.995Z,62.20
2022-12-18T06:33:55.338Z,72.00
2022-12-18T06:36:23.554Z,61.10
2022-12-18T06:38:52.067Z,73.50
2022-12-18T06:41:22.275Z,67.90
2022-12-18T06:43:52.182Z,59.00
2022-12-18T06:46:22.782Z,60.50
2022-12-18T06:48:51.614Z,57.10
2022-12-18T06:51:24.116Z,69.10
2022-12-18T06:53:52.661Z,63.80
2022-12-18T06:56:20.917Z,65.80
2022-12-18T06:58:52.520Z,61.70
2022-12-18T07:01:20.894Z,60.50
2022-12-18T07:03:55.745Z,71.80
2022-12-18T07:06:26.366Z,67.60
2022-12-18T07:08:55.945Z,74.20
2022-12-18T07:11:24.271Z,65.20
2022-12-18T07:13:54.008Z,67.30
2022-12-18T07:16:25.687Z,56.60
2022-12-18T07:18:56.898Z,57.20
2022-12-18T07:21:26.270Z,62.90
2022-12-18T07:23:55.032Z,63.00
2022-12-18T07:26:23.929Z,53.10
2022-12-18T07:28:56.512Z,62.10
2022-12-18T07:31:26.430Z,58.70
2022-12-18T07:33:54.785Z,64.80
2022-12-18T07:36:22.907Z,63.60
2022-12-18T07:38:53.041Z,65.20
2022-12-18T07:41:21.985Z,59.70
2022-12-18T07:43:50.388Z,65.90
2022-12-18T07:46:18.927Z,68.90
2022-12-18T07:48:50.086Z,69.00
2022-12-18T07:51:19.804Z,69.00
2022-12-18T07:53:49.557Z,75.70
2022-12-18T07:56:30.512Z,76.50
2022-12-18T07:59:00.712Z,75.00
2022-12-18T08:01:29.281Z,80.50
2022-12-18T08:03:59.026Z,79.40
2022-12-18T08:06:27.224Z,80.60
2022-12-18T08:08:56.739Z,75.20
2022-12-18T08:11:26.903Z,90.50
2022-12-18T08:13:55.997Z,77.50
2022-12-18T08:16:25.194Z,87.80
2022-12-18T08:18:54.721Z,81.10
2022-12-18T08:21:26.173Z,73.00
2022-12-18T08:23:56.503Z,78.30
2022-12-18T08:26:26.947Z,85.70
2022-12-18T08:28:59.884Z,76.80
2022-12-18T08:33:57.595Z,86.90
2022-12-18T08:36:26.203Z,76.90
2022-12-18T08:38:55.264Z,71.00
2022-12-18T08:41:23.605Z,76.50
2022-12-18T08:44:10.601Z,77.00
2022-12-18T08:46:41.463Z,74.80
2022-12-18T08:49:11.299Z,75.70
2022-12-18T08:51:40.395Z,75.00
2022-12-18T08:54:08.855Z,83.00
2022-12-18T08:56:37.143Z,64.80
2022-12-18T08:59:05.540Z,69.50
2022-12-18T09:01:34.280Z,66.00
2022-12-18T09:04:04.061Z,82.40
2022-12-18T09:06:33.506Z,75.60
2022-12-18T09:09:02.125Z,72.20
2022-12-18T09:11:31.699Z,69.10
2022-12-18T09:14:02.039Z,64.00
2022-12-18T09:16:32.536Z,66.80
2022-12-18T09:19:01.296Z,54.40
2022-12-18T09:21:35.859Z,64.30
2022-12-18T09:24:08.581Z,71.70
2022-12-18T09:26:38.549Z,70.30
2022-12-18T09:29:08.466Z,75.80
2022-12-18T09:31:39.151Z,70.60
2022-12-18T09:34:07.825Z,68.80
2022-12-18T09:36:36.180Z,63.60
2022-12-18T09:39:08.294Z,65.80
2022-12-18T09:41:46.786Z,65.40
2022-12-18T09:44:22.575Z,68.10
2022-12-18T09:47:10.679Z,57.80
2022-12-18T09:49:43.830Z,62.30
2022-12-18T09:52:38.951Z,63.30
2022-12-18T09:55:37.385Z,62.60
2022-12-18T09:58:45.409Z,62.20
2022-12-18T10:01:17.708Z,52.40
2022-12-18T10:03:46.483Z,53.10
2022-12-18T10:06:43.687Z,55.00
2022-12-18T10:09:26.628Z,58.70
2022-12-18T10:12:09.695Z,56.50
2022-12-18T10:15:21.152Z,59.60
2022-12-18T10:18:35.869Z,52.50
2022-12-18T10:21:31.227Z,60.20
2022-12-18T10:24:14.271Z,55.30
2022-12-18T10:26:43.471Z,54.90
2022-12-18T10:29:17.122Z,54.10
2022-12-18T10:34:14.011Z,58.00
2022-12-18T10:36:43.339Z,54.20
2022-12-18T10:39:23.618Z,56.10
2022-12-18T10:41:52.879Z,55.60
2022-12-18T10:44:23.942Z,53.50
2022-12-18T10:46:59.138Z,55.10
2022-12-18T10:49:29.982Z,51.70
2022-12-18T10:52:19.618Z,54.10
2022-12-18T10:54:52.547Z,52.40
2022-12-18T10:57:27.097Z,57.40
2022-12-18T10:59:57.391Z,53.70
2022-12-18T11:02:37.042Z,58.20
2022-12-18T11:05:26.968Z,53.40
2022-12-18T11:07:57.345Z,63.30
2022-12-18T11:10:31.688Z,57.50
2022-12-18T11:13:14.362Z,60.10
2022-12-18T11:15:43.000Z,61.60
2022-12-18T11:18:28.726Z,59.80
2022-12-18T11:21:12.120Z,59.10
2022-12-18T11:23:48.024Z,64.90
2022-12-18T11:26:16.627Z,59.50
2022-12-18T11:28:46.423Z,61.40
2022-12-18T11:31:32.488Z,63.80
2022-12-18T11:34:30.846Z,60.10
2022-12-18T11:37:02.271Z,61.60
2022-12-18T11:39:40.758Z,60.90
2022-12-18T11:42:11.785Z,51.40
2022-12-18T11:44:59.359Z,56.80
2022-12-18T11:47:40.367Z,53.20
2022-12-18T11:50:19.711Z,56.00
2022-12-18T11:52:52.797Z,58.20
2022-12-18T11:55:55.622Z,62.20
2022-12-18T11:58:57.670Z,58.30
2022-12-18T12:01:44.486Z,62.40
2022-12-18T12:04:23.757Z,56.90
2022-12-18T12:07:07.273Z,57.80
2022-12-18T12:09:35.372Z,59.50
2022-12-18T12:12:48.695Z,61.00
2022-12-18T12:15:43.648Z,59.70
2022-12-18T12:18:36.756Z,58.40
2022-12-18T12:21:20.121Z,56.40
2022-12-18T12:24:30.044Z,58.40
2022-12-18T12:27:13.720Z,54.60
2022-12-18T12:30:19.834Z,57.90
2022-12-18T12:33:18.998Z,60.00
2022-12-18T12:36:23.712Z,57.20
2022-12-18T12:38:58.927Z,60.00
2022-12-18T12:41:50.579Z,52.80
2022-12-18T13:07:05.785Z,55.40
2022-12-18T13:12:43.052Z,54.20
2022-12-18T13:15:23.398Z,55.40
2022-12-18T13:18:12.003Z,54.10
2022-12-18T13:20:46.591Z,54.40
2022-12-18T13:23:25.276Z,52.10
2022-12-18T13:25:53.964Z,50.40
2022-12-18T13:28:44.972Z,51.70
2022-12-18T13:31:32.933Z,54.30
2022-12-18T13:34:27.690Z,57.30
2022-12-18T13:37:18.150Z,59.70
2022-12-18T13:39:46.643Z,61.00
2022-12-18T13:42:36.877Z,58.00
2022-12-18T13:45:51.002Z,65.70
2022-12-18T13:48:24.548Z,64.60
2022-12-18T13:53:43.556Z,64.60
2022-12-18T13:56:25.023Z,63.70
2022-12-18T13:59:12.986Z,68.70
2022-12-18T14:01:47.428Z,69.70
2022-12-18T14:04:32.451Z,69.80
2022-12-18T14:07:20.025Z,66.50
2022-12-18T14:10:06.442Z,69.10
2022-12-18T14:13:02.142Z,71.50
2022-12-18T14:15:42.764Z,76.10
2022-12-18T14:18:23.115Z,81.60
2022-12-18T14:21:00.033Z,68.60
2022-12-18T14:23:39.622Z,77.10
2022-12-18T14:26:30.391Z,72.70
2022-12-18T14:29:02.409Z,82.20
2022-12-18T14:31:32.690Z,76.90
2022-12-18T14:34:01.080Z,82.20
2022-12-18T14:36:30.397Z,86.90
2022-12-18T14:38:59.803Z,85.90
2022-12-18T14:41:29.836Z,90.50
2022-12-18T14:44:08.094Z,93.30
2022-12-18T14:46:38.798Z,98.00
2022-12-18T14:49:20.099Z,107.20
2022-12-18T14:51:57.581Z,92.20
2022-12-18T14:54:27.327Z,97.50
2022-12-18T14:57:23.615Z,92.10
2022-12-18T14:59:52.403Z,100.90
2022-12-18T15:02:29.117Z,102.10
2022-12-18T15:05:14.372Z,107.80
2022-12-18T15:07:46.883Z,100.60
2022-12-18T15:10:19.629Z,82.80
2022-12-18T15:13:00.823Z,93.30
2022-12-18T15:15:35.387Z,88.60
2022-12-18T15:18:09.850Z,84.90
2022-12-18T15:20:44.237Z,90.20
2022-12-18T15:23:19.020Z,78.90
2022-12-18T15:25:49.068Z,75.40
2022-12-18T15:28:27.927Z,72.10
2022-12-18T15:31:07.763Z,80.30
2022-12-18T15:33:42.227Z,80.80
2022-12-18T15:36:14.184Z,66.90
2022-12-18T15:38:42.684Z,78.00
2022-12-18T15:41:16.849Z,70.30
2022-12-18T15:43:48.772Z,94.40
2022-12-18T15:46:19.651Z,100.50
2022-12-18T15:48:49.816Z,64.70
2022-12-18T15:51:27.887Z,76.40
2022-12-18T15:53:59.751Z,71.30
2022-12-18T15:56:46.465Z,71.80
2022-12-18T15:59:17.961Z,68.90
2022-12-18T16:01:48.953Z,72.80
2022-12-18T16:04:21.670Z,75.90
2022-12-18T16:07:13.689Z,77.20
2022-12-18T16:09:39.859Z,77.80
2022-12-18T16:12:22.102Z,77.80
2022-12-18T16:14:50.459Z,83.10
2022-12-18T16:17:19.066Z,71.70
2022-12-18T16:19:47.439Z,57.40
2022-12-18T16:22:28.185Z,79.10
2022-12-18T16:24:57.797Z,68.90
2022-12-18T16:27:26.574Z,65.10
2022-12-18T16:29:54.764Z,76.30
2022-12-18T16:32:23.711Z,82.90
2022-12-18T16:34:52.931Z,84.90
2022-12-18T16:37:21.169Z,75.50
2022-12-18T16:39:49.370Z,79.20
2022-12-18T16:42:20.677Z,78.80
2022-12-18T16:44:50.591Z,74.40
2022-12-18T16:47:19.955Z,78.20
2022-12-18T16:49:51.886Z,72.90
2022-12-18T16:52:20.606Z,76.30
2022-12-18T16:54:49.199Z,89.90
2022-12-18T16:57:20.099Z,77.10
2022-12-18T16:59:50.072Z,73.90
2022-12-18T17:02:23.763Z,74.90
2022-12-18T17:04:55.749Z,77.50
2022-12-18T17:07:25.035Z,68.20
2022-12-18T17:09:54.469Z,75.40
2022-12-18T17:12:23.607Z,70.80
2022-12-18T17:14:51.892Z,75.90
2022-12-18T17:17:23.051Z,60.40
2022-12-18T17:19:52.892Z,75.00
2022-12-18T17:22:23.463Z,77.20
2022-12-18T17:24:51.946Z,72.40
2022-12-18T17:27:20.227Z,75.00
2022-12-18T17:29:49.145Z,74.60
2022-12-18T17:32:18.102Z,77.90
2022-12-18T17:34:46.790Z,74.40
2022-12-18T17:37:15.660Z,77.00
2022-12-18T17:39:44.048Z,67.10
2022-12-18T17:42:15.458Z,69.70
2022-12-18T17:44:45.040Z,72.80
2022-12-18T17:47:14.644Z,75.80
2022-12-18T17:49:43.231Z,71.10
2022-12-18T17:52:11.815Z,72.70
2022-12-18T17:54:42.277Z,60.60
2022-12-18T17:57:11.221Z,72.60
2022-12-18T17:59:39.488Z,69.10
2022-12-18T18:02:11.720Z,73.90
2022-12-18T18:04:40.416Z,65.70
2022-12-18T18:07:08.619Z,64.60
2022-12-18T18:09:36.903Z,64.70
2022-12-18T18:12:23.556Z,84.60
2022-12-18T18:14:51.792Z,76.70
2022-12-18T18:17:20.149Z,73.30
2022-12-18T18:19:49.640Z,81.10
2022-12-18T18:22:19.130Z,90.70
2022-12-18T18:24:48.164Z,81.70
2022-12-18T18:27:16.501Z,80.80
2022-12-18T18:29:45.051Z,82.60
2022-12-18T18:32:13.481Z,91.60
2022-12-18T18:34:41.892Z,98.70
2022-12-18T18:37:11.384Z,81.80
2022-12-18T18:39:39.766Z,78.80
2022-12-18T18:42:08.376Z,89.10
2022-12-18T18:44:37.441Z,81.00
2022-12-18T18:47:06.308Z,97.70
2022-12-18T18:49:37.796Z,75.70
2022-12-18T18:52:07.321Z,93.10
2022-12-18T18:54:35.595Z,90.30
2022-12-18T18:57:20.456Z,79.90
2022-12-18T18:59:49.661Z,76.20
2022-12-18T19:02:18.171Z,88.00
2022-12-18T19:04:47.144Z,84.90
2022-12-18T19:07:29.784Z,71.60
2022-12-18T19:10:07.246Z,72.90
2022-12-18T19:12:54.158Z,68.30
2022-12-18T19:15:23.355Z,76.50
2022-12-18T19:17:51.798Z,80.50
2022-12-18T19:20:22.812Z,84.00
2022-12-18T19:22:55.512Z,83.90
2022-12-18T19:25:38.225Z,89.90
2022-12-18T19:28:21.293Z,88.00
2022-12-18T19:30:57.881Z,81.70
2022-12-18T19:33:45.636Z,85.30
2022-12-18T19:36:28.162Z,75.70
2022-12-18T19:38:59.766Z,87.80
2022-12-18T19:41:37.694Z,81.30
2022-12-18T19:44:08.304Z,79.40
2022-12-18T19:46:37.153Z,59.00
2022-12-18T19:49:11.537Z,67.80
2022-12-18T19:51:45.061Z,79.60
2022-12-18T19:54:17.076Z,77.80
2022-12-18T19:56:46.000Z,68.60
2022-12-18T19:59:14.339Z,75.10
2022-12-18T20:01:42.714Z,83.10
2022-12-18T20:04:11.101Z,74.70
2022-12-18T20:06:51.450Z,81.50
2022-12-18T20:09:20.774Z,70.70
2022-12-18T20:11:50.098Z,77.40
2022-12-18T20:14:22.726Z,70.50
2022-12-18T20:16:53.040Z,75.60
2022-12-18T20:19:22.468Z,76.30
2022-12-18T20:21:50.936Z,83.20
2022-12-18T20:24:19.212Z,87.10
2022-12-18T20:26:47.491Z,88.50
2022-12-18T20:29:15.738Z,89.50
2022-12-18T20:31:43.997Z,83.90
2022-12-18T20:34:12.254Z,88.30
2022-12-18T20:36:41.156Z,88.00
2022-12-18T20:39:13.316Z,91.80
2022-12-18T20:41:41.671Z,99.60
2022-12-18T20:44:23.271Z,80.40
2022-12-18T20:46:56.597Z,85.00
2022-12-18T20:49:26.715Z,81.10
2022-12-18T20:51:56.951Z,61.40
2022-12-18T20:54:27.596Z,84.20
2022-12-18T20:56:56.164Z,85.60
2022-12-18T20:59:25.793Z,81.20
2022-12-18T21:01:54.715Z,79.10
2022-12-18T21:04:23.593Z,80.00
2022-12-18T21:07:00.465Z,73.20
2022-12-18T21:09:38.245Z,66.40
2022-12-18T21:12:33.637Z,80.40
2022-12-18T21:15:10.151Z,89.60
2022-12-18T21:17:39.441Z,85.20
2022-12-18T21:20:17.882Z,82.20
2022-12-18T21:22:49.415Z,80.00
2022-12-18T21:25:18.112Z,83.30
2022-12-18T21:27:46.319Z,83.80
2022-12-18T21:30:15.278Z,78.60
2022-12-18T21:32:43.968Z,86.80
2022-12-18T21:35:12.369Z,82.20
2022-12-18T21:37:41.595Z,80.20
2022-12-18T21:40:10.262Z,93.90
2022-12-18T21:42:56.904Z,84.10
2022-12-18T21:45:25.399Z,87.50
2022-12-18T21:47:53.576Z,82.90
2022-12-18T21:50:21.727Z,80.40
2022-12-18T21:52:49.838Z,77.40
2022-12-18T21:55:18.327Z,73.60
2022-12-18T21:57:46.595Z,77.90
2022-12-18T22:00:17.427Z,71.60
2022-12-18T22:02:49.614Z,79.80
2022-12-18T22:05:36.769Z,68.60
2022-12-18T22:08:06.841Z,69.00
2022-12-18T22:10:35.839Z,83.50
2022-12-18T22:13:05.396Z,78.20
2022-12-18T22:15:33.707Z,77.40
2022-12-18T22:18:02.139Z,87.20
2022-12-18T22:20:30.781Z,78.00
2022-12-18T22:22:59.508Z,54.60
2022-12-18T22:25:32.238Z,72.50
2022-12-18T22:28:21.334Z,90.20
2022-12-18T22:30:49.470Z,87.00
2022-12-18T22:33:21.222Z,81.30
2022-12-18T22:35:49.434Z,90.10
2022-12-18T22:38:17.528Z,78.40
2022-12-18T22:40:45.614Z,89.20
2022-12-18T22:43:13.788Z,96.10
2022-12-18T22:45:42.520Z,89.40
2022-12-18T22:48:11.019Z,96.90
2022-12-18T22:50:39.420Z,89.20
2022-12-18T22:53:08.056Z,73.90
2022-12-18T22:55:36.305Z,75.10
2022-12-18T22:58:04.571Z,80.90
2022-12-18T23:00:32.993Z,80.80
2022-12-18T23:03:01.487Z,75.40
2022-12-18T23:05:31.511Z,98.60
2022-12-18T23:07:59.673Z,72.20
2022-12-18T23:10:29.138Z,70.20
2022-12-18T23:12:57.404Z,80.80
2022-12-18T23:15:28.309Z,93.10
2022-12-18T23:17:58.541Z,81.70
2022-12-18T23:20:28.202Z,72.00
2022-12-18T23:22:56.606Z,78.40
2022-12-18T23:25:25.144Z,65.60
2022-12-18T23:27:53.809Z,78.10
2022-12-18T23:30:22.257Z,59.90
2022-12-18T23:32:50.632Z,78.30
2022-12-18T23:35:19.251Z,89.80
2022-12-18T23:37:58.917Z,65.80
2022-12-18T23:40:29.537Z,73.20
2022-12-18T23:42:59.271Z,68.20
2022-12-18T23:45:27.516Z,72.50
2022-12-18T23:47:55.924Z,77.90
2022-12-18T23:50:29.714Z,78.80
2022-12-18T23:53:04.832Z,72.00
2022-12-18T23:55:39.736Z,85.20
2022-12-18T23:58:18.889Z,68.60
